sensor_id;sensor_type;location;lat;lon;timestamp;temperature;humidity
41437;DHT22;27178;49.460;10.850;2023-12-07T00:00:58;5.70;89.50
41437;DHT22;27178;49.460;10.850;2023-12-07T00:03:26;5.70;89.40
41437;DHT22;27178;49.460;10.850;2023-12-07T00:05:56;5.70;89.50
41437;DHT22;27178;49.460;10.850;2023-12-07T00:08:24;5.70;89.50
41437;DHT22;27178;49.460;10.850;2023-12-07T00:10:53;5.70;89.60
41437;DHT22;27178;49.460;10.850;2023-12-07T00:13:22;5.70;89.60
41437;DHT22;27178;49.460;10.850;2023-12-07T00:15:51;5.70;89.50
41437;DHT22;27178;49.460;10.850;2023-12-07T00:18:19;5.80;89.80
41437;DHT22;27178;49.460;10.850;2023-12-07T00:20:48;5.70;89.40
41437;DHT22;27178;49.460;10.850;2023-12-07T00:23:17;5.70;90.10
41437;DHT22;27178;49.460;10.850;2023-12-07T00:25:45;5.80;89.40
41437;DHT22;27178;49.460;10.850;2023-12-07T00:28:14;5.80;89.50
41437;DHT22;27178;49.460;10.850;2023-12-07T00:30:43;5.70;89.50
41437;DHT22;27178;49.460;10.850;2023-12-07T00:33:11;5.80;89.50
41437;DHT22;27178;49.460;10.850;2023-12-07T00:35:39;5.80;89.40
41437;DHT22;27178;49.460;10.850;2023-12-07T00:38:08;5.80;89.50
41437;DHT22;27178;49.460;10.850;2023-12-07T00:40:39;5.80;89.50
41437;DHT22;27178;49.460;10.850;2023-12-07T00:43:07;5.80;89.60
41437;DHT22;27178;49.460;10.850;2023-12-07T00:45:36;5.80;89.30
41437;DHT22;27178;49.460;10.850;2023-12-07T00:48:04;5.80;89.30
41437;DHT22;27178;49.460;10.850;2023-12-07T00:50:33;5.80;89.30
41437;DHT22;27178;49.460;10.850;2023-12-07T00:53:01;5.80;89.10
41437;DHT22;27178;49.460;10.850;2023-12-07T00:55:29;5.80;89.10
41437;DHT22;27178;49.460;10.850;2023-12-07T00:58:00;5.80;89.00
41437;DHT22;27178;49.460;10.850;2023-12-07T01:00:28;5.80;89.00
41437;DHT22;27178;49.460;10.850;2023-12-07T01:02:57;5.70;88.90
41437;DHT22;27178;49.460;10.850;2023-12-07T01:05:25;5.70;89.00
41437;DHT22;27178;49.460;10.850;2023-12-07T01:07:54;5.70;89.10
41437;DHT22;27178;49.460;10.850;2023-12-07T01:10:22;5.70;89.10
41437;DHT22;27178;49.460;10.850;2023-12-07T01:12:51;5.70;89.20
41437;DHT22;27178;49.460;10.850;2023-12-07T01:15:21;5.70;89.10
41437;DHT22;27178;49.460;10.850;2023-12-07T01:17:49;5.70;89.30
41437;DHT22;27178;49.460;10.850;2023-12-07T01:20:20;5.70;89.20
41437;DHT22;27178;49.460;10.850;2023-12-07T01:22:48;5.70;89.30
41437;DHT22;27178;49.460;10.850;2023-12-07T01:25:17;5.70;89.40
41437;DHT22;27178;49.460;10.850;2023-12-07T01:27:49;5.70;89.30
41437;DHT22;27178;49.460;10.850;2023-12-07T01:30:18;5.70;89.30
41437;DHT22;27178;49.460;10.850;2023-12-07T01:32:47;5.70;89.40
41437;DHT22;27178;49.460;10.850;2023-12-07T01:35:16;5.70;89.30
41437;DHT22;27178;49.460;10.850;2023-12-07T01:37:44;5.70;89.30
41437;DHT22;27178;49.460;10.850;2023-12-07T01:40:12;5.70;89.40
41437;DHT22;27178;49.460;10.850;2023-12-07T01:42:49;5.60;89.40
41437;DHT22;27178;49.460;10.850;2023-12-07T01:45:18;5.70;89.40
41437;DHT22;27178;49.460;10.850;2023-12-07T01:47:49;5.70;89.30
41437;DHT22;27178;49.460;10.850;2023-12-07T01:50:20;5.70;89.60
41437;DHT22;27178;49.460;10.850;2023-12-07T01:52:54;5.70;89.70
41437;DHT22;27178;49.460;10.850;2023-12-07T01:55:25;5.70;89.80
41437;DHT22;27178;49.460;10.850;2023-12-07T01:57:55;5.70;89.70
41437;DHT22;27178;49.460;10.850;2023-12-07T02:00:24;5.70;89.50
41437;DHT22;27178;49.460;10.850;2023-12-07T02:02:54;5.70;89.50
41437;DHT22;27178;49.460;10.850;2023-12-07T02:05:24;5.70;89.50
41437;DHT22;27178;49.460;10.850;2023-12-07T02:07:54;5.70;89.60
41437;DHT22;27178;49.460;10.850;2023-12-07T02:10:23;5.70;89.50
41437;DHT22;27178;49.460;10.850;2023-12-07T02:12:52;5.70;89.60
41437;DHT22;27178;49.460;10.850;2023-12-07T02:15:21;5.70;89.50
41437;DHT22;27178;49.460;10.850;2023-12-07T02:17:53;5.70;89.30
41437;DHT22;27178;49.460;10.850;2023-12-07T02:20:28;5.70;89.50
41437;DHT22;27178;49.460;10.850;2023-12-07T02:23:01;5.70;89.60
41437;DHT22;27178;49.460;10.850;2023-12-07T02:25:36;5.70;89.70
41437;DHT22;27178;49.460;10.850;2023-12-07T02:28:07;5.70;89.70
41437;DHT22;27178;49.460;10.850;2023-12-07T02:30:36;5.70;89.60
41437;DHT22;27178;49.460;10.850;2023-12-07T02:33:04;5.70;89.70
41437;DHT22;27178;49.460;10.850;2023-12-07T02:35:35;5.70;89.70
41437;DHT22;27178;49.460;10.850;2023-12-07T02:38:04;5.80;90.00
41437;DHT22;27178;49.460;10.850;2023-12-07T02:40:34;5.70;89.90
41437;DHT22;27178;49.460;10.850;2023-12-07T02:43:04;5.80;90.00
41437;DHT22;27178;49.460;10.850;2023-12-07T02:45:34;5.70;89.90
41437;DHT22;27178;49.460;10.850;2023-12-07T02:48:02;5.80;89.90
41437;DHT22;27178;49.460;10.850;2023-12-07T02:50:31;5.80;90.00
41437;DHT22;27178;49.460;10.850;2023-12-07T02:53:00;5.80;89.80
41437;DHT22;27178;49.460;10.850;2023-12-07T02:55:28;5.80;89.80
41437;DHT22;27178;49.460;10.850;2023-12-07T02:57:57;5.80;89.70
41437;DHT22;27178;49.460;10.850;2023-12-07T03:00:25;5.80;89.70
41437;DHT22;27178;49.460;10.850;2023-12-07T03:02:55;5.80;89.90
41437;DHT22;27178;49.460;10.850;2023-12-07T03:05:23;5.80;90.00
41437;DHT22;27178;49.460;10.850;2023-12-07T03:07:52;5.80;90.00
41437;DHT22;27178;49.460;10.850;2023-12-07T03:10:20;5.80;90.00
41437;DHT22;27178;49.460;10.850;2023-12-07T03:12:48;5.80;90.00
41437;DHT22;27178;49.460;10.850;2023-12-07T03:15:16;5.80;90.00
41437;DHT22;27178;49.460;10.850;2023-12-07T03:17:45;5.80;89.90
41437;DHT22;27178;49.460;10.850;2023-12-07T03:20:15;5.80;90.00
41437;DHT22;27178;49.460;10.850;2023-12-07T03:22:43;5.80;89.90
41437;DHT22;27178;49.460;10.850;2023-12-07T03:25:13;5.80;89.80
41437;DHT22;27178;49.460;10.850;2023-12-07T03:27:41;5.80;89.70
41437;DHT22;27178;49.460;10.850;2023-12-07T03:30:10;5.80;90.00
41437;DHT22;27178;49.460;10.850;2023-12-07T03:32:39;5.80;90.00
41437;DHT22;27178;49.460;10.850;2023-12-07T03:35:11;5.70;90.00
41437;DHT22;27178;49.460;10.850;2023-12-07T03:37:40;5.80;89.90
41437;DHT22;27178;49.460;10.850;2023-12-07T03:40:09;5.80;89.80
41437;DHT22;27178;49.460;10.850;2023-12-07T03:42:38;5.70;90.00
41437;DHT22;27178;49.460;10.850;2023-12-07T03:45:22;5.70;90.00
41437;DHT22;27178;49.460;10.850;2023-12-07T03:47:51;5.70;90.00
41437;DHT22;27178;49.460;10.850;2023-12-07T03:50:19;5.70;89.70
41437;DHT22;27178;49.460;10.850;2023-12-07T03:52:49;5.70;90.00
41437;DHT22;27178;49.460;10.850;2023-12-07T03:55:17;5.70;90.00
41437;DHT22;27178;49.460;10.850;2023-12-07T03:57:46;5.70;90.00
41437;DHT22;27178;49.460;10.850;2023-12-07T04:00:14;5.70;90.40
41437;DHT22;27178;49.460;10.850;2023-12-07T04:02:43;5.70;90.00
41437;DHT22;27178;49.460;10.850;2023-12-07T04:05:12;5.70;90.00
41437;DHT22;27178;49.460;10.850;2023-12-07T04:07:41;5.60;90.10
41437;DHT22;27178;49.460;10.850;2023-12-07T04:10:11;5.70;90.00
41437;DHT22;27178;49.460;10.850;2023-12-07T04:12:40;5.60;90.00
41437;DHT22;27178;49.460;10.850;2023-12-07T04:15:09;5.60;90.00
41437;DHT22;27178;49.460;10.850;2023-12-07T04:17:38;5.60;90.10
41437;DHT22;27178;49.460;10.850;2023-12-07T04:20:07;5.60;90.00
41437;DHT22;27178;49.460;10.850;2023-12-07T04:22:36;5.60;90.10
41437;DHT22;27178;49.460;10.850;2023-12-07T04:25:06;5.60;90.10
41437;DHT22;27178;49.460;10.850;2023-12-07T04:27:35;5.60;90.10
41437;DHT22;27178;49.460;10.850;2023-12-07T04:30:05;5.60;90.10
41437;DHT22;27178;49.460;10.850;2023-12-07T04:32:33;5.60;90.10
41437;DHT22;27178;49.460;10.850;2023-12-07T04:35:02;5.60;90.00
41437;DHT22;27178;49.460;10.850;2023-12-07T04:37:31;5.60;90.00
41437;DHT22;27178;49.460;10.850;2023-12-07T04:40:00;5.60;90.00
41437;DHT22;27178;49.460;10.850;2023-12-07T04:42:28;5.60;90.00
41437;DHT22;27178;49.460;10.850;2023-12-07T04:44:58;5.60;90.00
41437;DHT22;27178;49.460;10.850;2023-12-07T04:47:27;5.60;90.00
41437;DHT22;27178;49.460;10.850;2023-12-07T04:49:56;5.60;90.00
41437;DHT22;27178;49.460;10.850;2023-12-07T04:52:24;5.60;90.00
41437;DHT22;27178;49.460;10.850;2023-12-07T04:54:55;5.50;90.00
41437;DHT22;27178;49.460;10.850;2023-12-07T04:57:23;5.50;90.00
41437;DHT22;27178;49.460;10.850;2023-12-07T04:59:52;5.50;90.00
41437;DHT22;27178;49.460;10.850;2023-12-07T05:02:22;5.50;90.00
41437;DHT22;27178;49.460;10.850;2023-12-07T05:04:51;5.50;89.80
41437;DHT22;27178;49.460;10.850;2023-12-07T05:07:20;5.50;89.60
41437;DHT22;27178;49.460;10.850;2023-12-07T05:09:48;5.50;89.40
41437;DHT22;27178;49.460;10.850;2023-12-07T05:12:17;5.40;89.40
41437;DHT22;27178;49.460;10.850;2023-12-07T05:14:46;5.40;89.30
41437;DHT22;27178;49.460;10.850;2023-12-07T05:17:14;5.40;89.40
41437;DHT22;27178;49.460;10.850;2023-12-07T05:19:45;5.40;89.40
41437;DHT22;27178;49.460;10.850;2023-12-07T05:22:14;5.30;89.20
41437;DHT22;27178;49.460;10.850;2023-12-07T05:24:43;5.30;89.30
41437;DHT22;27178;49.460;10.850;2023-12-07T05:27:11;5.30;89.30
41437;DHT22;27178;49.460;10.850;2023-12-07T05:29:39;5.30;89.30
41437;DHT22;27178;49.460;10.850;2023-12-07T05:32:08;5.20;89.30
41437;DHT22;27178;49.460;10.850;2023-12-07T05:34:37;5.20;89.30
41437;DHT22;27178;49.460;10.850;2023-12-07T05:37:07;5.20;89.50
41437;DHT22;27178;49.460;10.850;2023-12-07T05:39:35;5.20;89.50
41437;DHT22;27178;49.460;10.850;2023-12-07T05:42:04;5.20;89.60
41437;DHT22;27178;49.460;10.850;2023-12-07T05:44:32;5.10;89.50
41437;DHT22;27178;49.460;10.850;2023-12-07T05:47:01;5.20;89.70
41437;DHT22;27178;49.460;10.850;2023-12-07T05:49:29;5.20;90.00
41437;DHT22;27178;49.460;10.850;2023-12-07T05:51:58;5.20;90.00
41437;DHT22;27178;49.460;10.850;2023-12-07T05:54:28;5.20;90.00
41437;DHT22;27178;49.460;10.850;2023-12-07T05:56:56;5.20;90.00
41437;DHT22;27178;49.460;10.850;2023-12-07T05:59:25;5.10;90.00
41437;DHT22;27178;49.460;10.850;2023-12-07T06:01:53;5.10;89.80
41437;DHT22;27178;49.460;10.850;2023-12-07T06:04:22;5.10;89.90
41437;DHT22;27178;49.460;10.850;2023-12-07T06:06:51;5.10;89.80
41437;DHT22;27178;49.460;10.850;2023-12-07T06:09:19;5.10;89.80
41437;DHT22;27178;49.460;10.850;2023-12-07T06:11:48;5.10;89.80
41437;DHT22;27178;49.460;10.850;2023-12-07T06:14:18;5.00;89.80
41437;DHT22;27178;49.460;10.850;2023-12-07T06:16:46;5.00;89.80
41437;DHT22;27178;49.460;10.850;2023-12-07T06:19:15;5.00;89.80
41437;DHT22;27178;49.460;10.850;2023-12-07T06:21:44;5.00;89.90
41437;DHT22;27178;49.460;10.850;2023-12-07T06:24:12;5.00;90.00
41437;DHT22;27178;49.460;10.850;2023-12-07T06:26:41;5.00;90.00
41437;DHT22;27178;49.460;10.850;2023-12-07T06:29:11;5.00;89.80
41437;DHT22;27178;49.460;10.850;2023-12-07T06:31:43;5.00;89.60
41437;DHT22;27178;49.460;10.850;2023-12-07T06:34:11;5.00;89.50
41437;DHT22;27178;49.460;10.850;2023-12-07T06:36:40;5.00;89.30
41437;DHT22;27178;49.460;10.850;2023-12-07T06:39:08;4.90;89.20
41437;DHT22;27178;49.460;10.850;2023-12-07T06:41:37;4.90;89.10
41437;DHT22;27178;49.460;10.850;2023-12-07T06:44:06;4.90;89.00
41437;DHT22;27178;49.460;10.850;2023-12-07T06:46:36;4.80;89.10
41437;DHT22;27178;49.460;10.850;2023-12-07T06:49:05;4.80;89.20
41437;DHT22;27178;49.460;10.850;2023-12-07T06:51:33;4.80;89.10
41437;DHT22;27178;49.460;10.850;2023-12-07T06:54:01;4.80;89.10
41437;DHT22;27178;49.460;10.850;2023-12-07T06:56:30;4.70;89.20
41437;DHT22;27178;49.460;10.850;2023-12-07T06:58:58;4.70;89.50
41437;DHT22;27178;49.460;10.850;2023-12-07T07:01:26;4.70;89.50
41437;DHT22;27178;49.460;10.850;2023-12-07T07:03:58;4.70;89.70
41437;DHT22;27178;49.460;10.850;2023-12-07T07:06:26;4.70;89.90
41437;DHT22;27178;49.460;10.850;2023-12-07T07:08:55;4.70;90.00
41437;DHT22;27178;49.460;10.850;2023-12-07T07:11:26;4.70;90.00
41437;DHT22;27178;49.460;10.850;2023-12-07T07:13:56;4.70;90.00
41437;DHT22;27178;49.460;10.850;2023-12-07T07:16:24;4.70;90.00
41437;DHT22;27178;49.460;10.850;2023-12-07T07:18:53;4.70;90.00
41437;DHT22;27178;49.460;10.850;2023-12-07T07:21:23;4.70;90.00
41437;DHT22;27178;49.460;10.850;2023-12-07T07:23:51;4.70;90.20
41437;DHT22;27178;49.460;10.850;2023-12-07T07:26:20;4.80;90.30
41437;DHT22;27178;49.460;10.850;2023-12-07T07:28:48;4.80;90.40
41437;DHT22;27178;49.460;10.850;2023-12-07T07:31:17;4.80;90.40
41437;DHT22;27178;49.460;10.850;2023-12-07T07:33:46;4.80;90.40
41437;DHT22;27178;49.460;10.850;2023-12-07T07:36:27;4.90;90.40
41437;DHT22;27178;49.460;10.850;2023-12-07T07:38:55;4.80;90.30
41437;DHT22;27178;49.460;10.850;2023-12-07T07:41:24;4.90;90.30
41437;DHT22;27178;49.460;10.850;2023-12-07T07:43:52;4.90;90.30
41437;DHT22;27178;49.460;10.850;2023-12-07T07:46:21;4.90;90.70
41437;DHT22;27178;49.460;10.850;2023-12-07T07:48:49;4.90;90.30
41437;DHT22;27178;49.460;10.850;2023-12-07T07:51:18;4.90;90.30
41437;DHT22;27178;49.460;10.850;2023-12-07T07:53:48;4.90;90.30
41437;DHT22;27178;49.460;10.850;2023-12-07T07:56:16;4.90;90.30
41437;DHT22;27178;49.460;10.850;2023-12-07T07:58:45;4.90;90.30
41437;DHT22;27178;49.460;10.850;2023-12-07T08:01:13;4.90;90.40
41437;DHT22;27178;49.460;10.850;2023-12-07T08:03:42;4.90;90.40
41437;DHT22;27178;49.460;10.850;2023-12-07T08:06:11;4.90;90.30
41437;DHT22;27178;49.460;10.850;2023-12-07T08:08:39;5.00;90.40
41437;DHT22;27178;49.460;10.850;2023-12-07T08:11:09;4.90;90.40
41437;DHT22;27178;49.460;10.850;2023-12-07T08:13:38;4.90;90.40
41437;DHT22;27178;49.460;10.850;2023-12-07T08:16:07;5.00;90.40
41437;DHT22;27178;49.460;10.850;2023-12-07T08:18:36;5.00;90.40
41437;DHT22;27178;49.460;10.850;2023-12-07T08:21:05;5.00;90.30
41437;DHT22;27178;49.460;10.850;2023-12-07T08:23:35;5.00;90.30
41437;DHT22;27178;49.460;10.850;2023-12-07T08:26:04;5.00;90.40
41437;DHT22;27178;49.460;10.850;2023-12-07T08:28:33;5.00;90.40
41437;DHT22;27178;49.460;10.850;2023-12-07T08:31:02;5.00;90.50
41437;DHT22;27178;49.460;10.850;2023-12-07T08:33:31;5.10;90.40
41437;DHT22;27178;49.460;10.850;2023-12-07T08:36:01;5.10;90.40
41437;DHT22;27178;49.460;10.850;2023-12-07T08:38:29;5.10;90.30
41437;DHT22;27178;49.460;10.850;2023-12-07T08:40:57;5.10;90.30
41437;DHT22;27178;49.460;10.850;2023-12-07T08:43:26;5.10;90.30
41437;DHT22;27178;49.460;10.850;2023-12-07T08:45:56;5.10;90.30
41437;DHT22;27178;49.460;10.850;2023-12-07T08:48:27;5.10;90.20
41437;DHT22;27178;49.460;10.850;2023-12-07T08:50:56;5.10;90.20
41437;DHT22;27178;49.460;10.850;2023-12-07T08:53:25;5.10;90.20
41437;DHT22;27178;49.460;10.850;2023-12-07T08:55:54;5.10;90.20
41437;DHT22;27178;49.460;10.850;2023-12-07T08:58:22;5.10;90.20
41437;DHT22;27178;49.460;10.850;2023-12-07T09:00:50;5.10;90.20
41437;DHT22;27178;49.460;10.850;2023-12-07T09:03:20;5.10;90.20
41437;DHT22;27178;49.460;10.850;2023-12-07T09:05:52;5.10;90.20
41437;DHT22;27178;49.460;10.850;2023-12-07T09:08:20;5.10;90.20
41437;DHT22;27178;49.460;10.850;2023-12-07T09:10:49;5.00;90.20
41437;DHT22;27178;49.460;10.850;2023-12-07T09:13:18;5.10;90.30
41437;DHT22;27178;49.460;10.850;2023-12-07T09:15:47;5.00;90.30
41437;DHT22;27178;49.460;10.850;2023-12-07T09:18:15;5.10;90.80
41437;DHT22;27178;49.460;10.850;2023-12-07T09:20:45;5.10;90.40
41437;DHT22;27178;49.460;10.850;2023-12-07T09:23:14;5.10;90.50
41437;DHT22;27178;49.460;10.850;2023-12-07T09:25:43;5.10;90.50
41437;DHT22;27178;49.460;10.850;2023-12-07T09:28:12;5.10;90.60
41437;DHT22;27178;49.460;10.850;2023-12-07T09:30:40;5.10;90.60
41437;DHT22;27178;49.460;10.850;2023-12-07T09:33:08;5.10;90.60
41437;DHT22;27178;49.460;10.850;2023-12-07T09:35:38;5.10;90.60
41437;DHT22;27178;49.460;10.850;2023-12-07T09:38:08;5.10;90.60
41437;DHT22;27178;49.460;10.850;2023-12-07T09:40:37;5.20;90.60
41437;DHT22;27178;49.460;10.850;2023-12-07T09:43:06;5.20;90.60
41437;DHT22;27178;49.460;10.850;2023-12-07T09:45:34;5.20;90.60
41437;DHT22;27178;49.460;10.850;2023-12-07T09:48:03;5.20;90.60
41437;DHT22;27178;49.460;10.850;2023-12-07T09:50:32;5.20;90.70
41437;DHT22;27178;49.460;10.850;2023-12-07T09:53:01;5.20;90.70
41437;DHT22;27178;49.460;10.850;2023-12-07T09:55:36;5.20;90.70
41437;DHT22;27178;49.460;10.850;2023-12-07T09:58:05;5.30;90.80
41437;DHT22;27178;49.460;10.850;2023-12-07T10:00:35;5.30;90.70
41437;DHT22;27178;49.460;10.850;2023-12-07T10:03:05;5.30;90.80
41437;DHT22;27178;49.460;10.850;2023-12-07T10:05:54;5.30;90.80
41437;DHT22;27178;49.460;10.850;2023-12-07T10:08:28;5.40;90.90
41437;DHT22;27178;49.460;10.850;2023-12-07T10:11:05;5.40;90.90
41437;DHT22;27178;49.460;10.850;2023-12-07T10:13:35;5.40;90.90
41437;DHT22;27178;49.460;10.850;2023-12-07T10:16:09;5.40;90.90
41437;DHT22;27178;49.460;10.850;2023-12-07T10:18:39;5.40;91.00
41437;DHT22;27178;49.460;10.850;2023-12-07T10:21:11;5.50;91.00
41437;DHT22;27178;49.460;10.850;2023-12-07T10:23:41;5.50;91.00
41437;DHT22;27178;49.460;10.850;2023-12-07T10:26:16;5.60;91.20
41437;DHT22;27178;49.460;10.850;2023-12-07T10:28:49;5.60;91.20
41437;DHT22;27178;49.460;10.850;2023-12-07T10:31:22;5.70;91.20
41437;DHT22;27178;49.460;10.850;2023-12-07T10:33:50;5.70;91.20
41437;DHT22;27178;49.460;10.850;2023-12-07T10:36:19;5.80;91.10
41437;DHT22;27178;49.460;10.850;2023-12-07T10:38:48;5.90;91.20
41437;DHT22;27178;49.460;10.850;2023-12-07T10:41:21;5.90;91.20
41437;DHT22;27178;49.460;10.850;2023-12-07T10:43:52;6.00;91.20
41437;DHT22;27178;49.460;10.850;2023-12-07T10:46:21;6.10;91.10
41437;DHT22;27178;49.460;10.850;2023-12-07T10:48:55;6.10;91.00
41437;DHT22;27178;49.460;10.850;2023-12-07T10:51:31;6.20;90.90
41437;DHT22;27178;49.460;10.850;2023-12-07T10:54:03;6.20;90.80
41437;DHT22;27178;49.460;10.850;2023-12-07T10:56:38;6.30;90.80
41437;DHT22;27178;49.460;10.850;2023-12-07T10:59:09;6.30;90.60
41437;DHT22;27178;49.460;10.850;2023-12-07T11:01:53;6.30;90.50
41437;DHT22;27178;49.460;10.850;2023-12-07T11:04:23;6.40;90.50
41437;DHT22;27178;49.460;10.850;2023-12-07T11:06:54;6.40;90.50
41437;DHT22;27178;49.460;10.850;2023-12-07T11:09:29;6.40;90.40
41437;DHT22;27178;49.460;10.850;2023-12-07T11:12:04;6.50;90.20
41437;DHT22;27178;49.460;10.850;2023-12-07T11:14:34;6.50;90.10
41437;DHT22;27178;49.460;10.850;2023-12-07T11:17:03;6.50;90.20
41437;DHT22;27178;49.460;10.850;2023-12-07T11:19:44;6.60;90.20
41437;DHT22;27178;49.460;10.850;2023-12-07T11:22:13;6.60;90.10
41437;DHT22;27178;49.460;10.850;2023-12-07T11:24:55;6.60;90.10
41437;DHT22;27178;49.460;10.850;2023-12-07T11:27:31;6.60;89.70
41437;DHT22;27178;49.460;10.850;2023-12-07T11:30:00;6.70;90.00
41437;DHT22;27178;49.460;10.850;2023-12-07T11:32:29;6.70;90.00
41437;DHT22;27178;49.460;10.850;2023-12-07T11:35:02;6.70;89.80
41437;DHT22;27178;49.460;10.850;2023-12-07T11:38:00;6.70;89.20
41437;DHT22;27178;49.460;10.850;2023-12-07T11:40:29;6.70;89.00
41437;DHT22;27178;49.460;10.850;2023-12-07T11:43:02;6.70;89.50
41437;DHT22;27178;49.460;10.850;2023-12-07T11:45:39;6.70;89.90
41437;DHT22;27178;49.460;10.850;2023-12-07T11:48:09;6.80;89.90
41437;DHT22;27178;49.460;10.850;2023-12-07T11:50:57;6.80;89.50
41437;DHT22;27178;49.460;10.850;2023-12-07T11:53:28;6.80;88.90
41437;DHT22;27178;49.460;10.850;2023-12-07T11:55:57;6.80;89.20
41437;DHT22;27178;49.460;10.850;2023-12-07T11:58:28;6.80;89.20
41437;DHT22;27178;49.460;10.850;2023-12-07T12:01:01;6.80;90.10
41437;DHT22;27178;49.460;10.850;2023-12-07T12:03:30;6.80;89.60
41437;DHT22;27178;49.460;10.850;2023-12-07T12:05:59;6.90;89.80
41437;DHT22;27178;49.460;10.850;2023-12-07T12:08:27;6.90;89.80
41437;DHT22;27178;49.460;10.850;2023-12-07T12:10:56;6.90;89.60
41437;DHT22;27178;49.460;10.850;2023-12-07T12:13:33;6.90;88.80
41437;DHT22;27178;49.460;10.850;2023-12-07T12:16:03;6.90;88.50
41437;DHT22;27178;49.460;10.850;2023-12-07T12:18:33;6.90;88.30
41437;DHT22;27178;49.460;10.850;2023-12-07T12:21:03;7.00;88.30
41437;DHT22;27178;49.460;10.850;2023-12-07T12:23:31;7.00;88.50
41437;DHT22;27178;49.460;10.850;2023-12-07T12:26:00;7.40;88.90
41437;DHT22;27178;49.460;10.850;2023-12-07T12:28:30;7.00;88.50
41437;DHT22;27178;49.460;10.850;2023-12-07T12:31:00;7.00;87.80
41437;DHT22;27178;49.460;10.850;2023-12-07T12:33:28;7.00;87.20
41437;DHT22;27178;49.460;10.850;2023-12-07T12:36:02;7.00;87.10
41437;DHT22;27178;49.460;10.850;2023-12-07T12:38:32;7.00;87.50
41437;DHT22;27178;49.460;10.850;2023-12-07T12:41:09;7.00;87.70
41437;DHT22;27178;49.460;10.850;2023-12-07T12:43:40;7.00;88.00
41437;DHT22;27178;49.460;10.850;2023-12-07T12:46:09;6.90;88.80
41437;DHT22;27178;49.460;10.850;2023-12-07T12:48:53;6.90;87.80
41437;DHT22;27178;49.460;10.850;2023-12-07T12:51:24;6.90;88.10
41437;DHT22;27178;49.460;10.850;2023-12-07T12:53:54;6.90;88.10
41437;DHT22;27178;49.460;10.850;2023-12-07T12:56:22;6.90;87.70
41437;DHT22;27178;49.460;10.850;2023-12-07T12:58:53;7.00;87.80
41437;DHT22;27178;49.460;10.850;2023-12-07T13:01:29;6.90;87.50
41437;DHT22;27178;49.460;10.850;2023-12-07T13:03:59;6.90;87.50
41437;DHT22;27178;49.460;10.850;2023-12-07T13:06:27;6.90;87.60
41437;DHT22;27178;49.460;10.850;2023-12-07T13:08:55;6.90;87.50
41437;DHT22;27178;49.460;10.850;2023-12-07T13:11:25;6.90;87.40
41437;DHT22;27178;49.460;10.850;2023-12-07T13:13:54;6.90;87.00
41437;DHT22;27178;49.460;10.850;2023-12-07T13:16:23;6.80;86.60
41437;DHT22;27178;49.460;10.850;2023-12-07T13:18:51;6.80;86.80
41437;DHT22;27178;49.460;10.850;2023-12-07T13:21:21;6.80;87.00
41437;DHT22;27178;49.460;10.850;2023-12-07T13:23:50;6.80;88.20
41437;DHT22;27178;49.460;10.850;2023-12-07T13:26:19;6.90;88.30
41437;DHT22;27178;49.460;10.850;2023-12-07T13:28:48;7.00;88.30
41437;DHT22;27178;49.460;10.850;2023-12-07T13:31:17;7.10;88.50
41437;DHT22;27178;49.460;10.850;2023-12-07T13:33:45;7.20;88.50
41437;DHT22;27178;49.460;10.850;2023-12-07T13:36:23;7.30;88.10
41437;DHT22;27178;49.460;10.850;2023-12-07T13:38:53;7.50;88.30
41437;DHT22;27178;49.460;10.850;2023-12-07T13:41:22;7.70;88.20
41437;DHT22;27178;49.460;10.850;2023-12-07T13:43:50;7.90;88.70
41437;DHT22;27178;49.460;10.850;2023-12-07T13:46:20;8.00;88.30
41437;DHT22;27178;49.460;10.850;2023-12-07T13:48:49;8.20;87.20
41437;DHT22;27178;49.460;10.850;2023-12-07T13:51:17;8.30;86.30
41437;DHT22;27178;49.460;10.850;2023-12-07T13:53:47;8.40;85.30
41437;DHT22;27178;49.460;10.850;2023-12-07T13:56:26;8.40;85.20
41437;DHT22;27178;49.460;10.850;2023-12-07T13:58:55;8.40;84.80
41437;DHT22;27178;49.460;10.850;2023-12-07T14:01:24;8.40;84.20
41437;DHT22;27178;49.460;10.850;2023-12-07T14:03:54;8.30;84.00
41437;DHT22;27178;49.460;10.850;2023-12-07T14:06:22;8.20;83.90
41437;DHT22;27178;49.460;10.850;2023-12-07T14:08:55;8.10;83.80
41437;DHT22;27178;49.460;10.850;2023-12-07T14:11:24;8.00;83.90
41437;DHT22;27178;49.460;10.850;2023-12-07T14:13:52;7.90;84.00
41437;DHT22;27178;49.460;10.850;2023-12-07T14:16:21;7.80;83.80
41437;DHT22;27178;49.460;10.850;2023-12-07T14:19:11;7.70;83.30
41437;DHT22;27178;49.460;10.850;2023-12-07T14:21:41;7.60;82.90
41437;DHT22;27178;49.460;10.850;2023-12-07T14:24:21;7.50;82.80
41437;DHT22;27178;49.460;10.850;2023-12-07T14:26:50;7.40;82.90
41437;DHT22;27178;49.460;10.850;2023-12-07T14:29:19;7.30;83.10
41437;DHT22;27178;49.460;10.850;2023-12-07T14:31:53;7.20;83.30
41437;DHT22;27178;49.460;10.850;2023-12-07T14:34:23;7.10;83.10
41437;DHT22;27178;49.460;10.850;2023-12-07T14:37:01;7.00;83.00
41437;DHT22;27178;49.460;10.850;2023-12-07T14:39:34;6.90;82.90
41437;DHT22;27178;49.460;10.850;2023-12-07T14:42:03;6.80;83.50
41437;DHT22;27178;49.460;10.850;2023-12-07T14:44:32;6.70;83.70
41437;DHT22;27178;49.460;10.850;2023-12-07T14:47:01;6.60;83.70
41437;DHT22;27178;49.460;10.850;2023-12-07T14:49:31;6.50;83.70
41437;DHT22;27178;49.460;10.850;2023-12-07T14:51:59;6.50;84.00
41437;DHT22;27178;49.460;10.850;2023-12-07T14:54:28;6.40;83.90
41437;DHT22;27178;49.460;10.850;2023-12-07T14:56:58;6.30;83.80
41437;DHT22;27178;49.460;10.850;2023-12-07T14:59:27;6.30;83.90
41437;DHT22;27178;49.460;10.850;2023-12-07T15:01:56;6.20;83.80
41437;DHT22;27178;49.460;10.850;2023-12-07T15:04:25;6.10;83.80
41437;DHT22;27178;49.460;10.850;2023-12-07T15:07:01;6.00;83.80
41437;DHT22;27178;49.460;10.850;2023-12-07T15:09:32;6.00;83.80
41437;DHT22;27178;49.460;10.850;2023-12-07T15:12:03;5.90;84.00
41437;DHT22;27178;49.460;10.850;2023-12-07T15:14:31;5.90;84.10
41437;DHT22;27178;49.460;10.850;2023-12-07T15:17:05;5.80;83.90
41437;DHT22;27178;49.460;10.850;2023-12-07T15:19:36;5.80;83.90
41437;DHT22;27178;49.460;10.850;2023-12-07T15:22:08;5.70;83.90
41437;DHT22;27178;49.460;10.850;2023-12-07T15:24:36;5.70;83.70
41437;DHT22;27178;49.460;10.850;2023-12-07T15:27:07;5.60;83.80
41437;DHT22;27178;49.460;10.850;2023-12-07T15:29:35;5.30;83.70
41437;DHT22;27178;49.460;10.850;2023-12-07T15:32:06;5.50;84.10
41437;DHT22;27178;49.460;10.850;2023-12-07T15:34:34;5.50;84.10
41437;DHT22;27178;49.460;10.850;2023-12-07T15:37:09;5.40;84.50
41437;DHT22;27178;49.460;10.850;2023-12-07T15:39:41;5.30;86.00
41437;DHT22;27178;49.460;10.850;2023-12-07T15:42:10;5.20;85.30
41437;DHT22;27178;49.460;10.850;2023-12-07T15:44:38;5.20;85.40
41437;DHT22;27178;49.460;10.850;2023-12-07T15:47:07;5.20;85.20